Time;durP1;ratioP1;P1;durP2;ratioP2;P2;SDS_P1;SDS_P2;PMS_P1;PMS_P2;Temp;Humidity;BMP_temperature;BMP_pressure;BME280_temperature;BME280_humidity;BME280_pressure;Samples;Min_cycle;Max_cycle;Signal;HPM_P1;HPM_P2
2021/05/08 00:03:17;;;;;;;3.27;2.70;;;;;;;4.17;100.00;100186.88;20865551;27;20967;-55
2021/05/08 00:33:11;;;;;;;3.20;3.00;;;;;;;4.47;100.00;100193.53;20893802;27;20916;-56
2021/05/08 00:43:14;;;;;;;4.03;3.67;;;;;;;4.61;100.00;100203.53;20885296;28;20221;-56
2021/05/08 00:53:15;;;;;;;3.70;3.40;;;;;;;4.67;100.00;100212.09;20884412;28;20255;-57
2021/05/08 01:03:15;;;;;;;5.03;4.50;;;;;;;4.73;100.00;100232.09;20876441;28;20244;-55
2021/05/08 01:13:16;;;;;;;8.20;6.67;;;;;;;4.81;100.00;100235.31;20858522;28;20768;-65
2021/05/08 01:23:17;;;;;;;8.17;7.37;;;;;;;4.91;100.00;100241.91;20863975;28;20462;-56
2021/05/08 01:33:18;;;;;;;9.93;8.43;;;;;;;5.02;100.00;100244.09;20863614;28;20325;-57
2021/05/08 01:43:18;;;;;;;10.37;9.10;;;;;;;5.12;100.00;100248.06;20806906;28;20230;-56
2021/05/08 01:53:19;;;;;;;11.73;10.53;;;;;;;5.36;100.00;100260.22;20814051;28;20222;-70
2021/05/08 02:03:20;;;;;;;11.37;10.37;;;;;;;5.50;100.00;100267.56;20791860;28;20234;-70
2021/05/08 02:13:21;;;;;;;11.70;10.60;;;;;;;5.58;100.00;100285.72;20832923;28;21137;-69
2021/05/08 02:33:16;;;;;;;12.73;11.50;;;;;;;5.65;100.00;100292.50;21052799;27;20575;-71
2021/05/08 02:53:14;;;;;;;10.23;9.33;;;;;;;5.79;100.00;100324.50;21108060;27;20578;-68
2021/05/08 03:13:13;;;;;;;8.53;7.73;;;;;;;5.75;100.00;100354.69;20874010;27;20624;-60
2021/05/08 03:33:09;;;;;;;7.37;6.77;;;;;;;5.73;100.00;100377.72;20868801;27;20575;-57
2021/05/08 03:43:10;;;;;;;6.50;5.97;;;;;;;5.58;100.00;100386.31;20874022;28;20372;-58
2021/05/08 03:53:10;;;;;;;6.77;6.17;;;;;;;5.48;100.00;100395.56;20853299;28;20225;-62
2021/05/08 04:03:11;;;;;;;7.50;6.83;;;;;;;5.58;100.00;100407.50;20870289;28;21079;-69
2021/05/08 04:13:12;;;;;;;7.30;6.60;;;;;;;5.69;100.00;100399.94;20857860;28;20306;-56
2021/05/08 04:23:13;;;;;;;7.13;6.43;;;;;;;6.07;100.00;100438.06;20863170;28;20231;-55
2021/05/08 04:33:13;;;;;;;6.93;5.63;;;;;;;6.30;100.00;100437.03;20862269;28;20216;-55
2021/05/08 04:53:09;;;;;;;6.63;6.03;;;;;;;6.74;100.00;100462.41;20806796;28;20553;-55
2021/05/08 05:03:09;;;;;;;6.87;6.27;;;;;;;6.88;100.00;100463.56;20715765;28;20268;-55
2021/05/08 05:23:05;;;;;;;7.23;6.63;;;;;;;7.16;97.77;100487.84;20870145;27;20625;-60
2021/05/08 05:33:05;;;;;;;5.07;4.67;;;;;;;7.86;95.17;100505.63;20873277;28;20306;-59
2021/05/08 05:43:05;;;;;;;5.40;5.00;;;;;;;7.66;93.23;100516.41;20827553;28;20232;-56
2021/05/08 05:53:07;;;;;;;6.17;5.67;;;;;;;7.69;94.38;100510.94;20800182;28;20586;-56
2021/05/08 06:03:07;;;;;;;6.00;5.50;;;;;;;8.10;92.39;100496.41;20803690;28;20225;-59
2021/05/08 06:13:08;;;;;;;5.07;4.50;;;;;;;8.91;88.18;100530.28;20786493;28;20264;-56
2021/05/08 06:23:09;;;;;;;5.23;4.73;;;;;;;8.65;89.10;100547.63;20798018;28;20479;-56
2021/05/08 06:33:10;;;;;;;5.53;5.13;;;;;;;8.79;86.80;100538.94;20715896;28;20472;-57
2021/05/08 06:43:10;;;;;;;6.10;5.60;;;;;;;8.82;88.51;100544.06;20753000;28;20601;-56
2021/05/08 06:53:11;;;;;;;5.90;5.40;;;;;;;9.20;86.91;100554.44;20730946;28;20271;-57
2021/05/08 07:03:11;;;;;;;4.82;4.30;;;;;;;9.43;83.99;100566.50;20729950;28;20616;-61
2021/05/08 07:13:12;;;;;;;4.87;4.37;;;;;;;9.24;84.37;100571.97;20713886;28;20689;-68
2021/05/08 07:23:13;;;;;;;5.47;4.97;;;;;;;9.61;82.64;100584.13;20720979;28;20219;-59
2021/05/08 07:33:15;;;;;;;6.60;4.60;;;;;;;10.00;81.52;100579.19;20717181;28;20782;-55
2021/05/08 07:53:20;;;;;;;4.60;3.60;;;;;;;10.92;77.54;100598.63;21131219;27;21236;-55
2021/05/08 08:03:20;;;;;;;4.67;3.83;;;;;;;11.03;76.85;100620.19;21102107;28;20700;-71
2021/05/08 08:13:21;;;;;;;3.40;3.10;;;;;;;10.92;77.01;100611.97;21122336;28;20303;-70
2021/05/08 08:23:22;;;;;;;6.87;4.27;;;;;;;10.60;76.29;100611.25;21100786;28;20225;-57
2021/05/08 08:33:22;;;;;;;4.17;3.77;;;;;;;10.78;73.00;100587.91;21088596;28;20495;-73
2021/05/08 08:43:23;;;;;;;5.40;4.87;;;;;;;10.91;73.75;100631.63;21025621;28;20226;-55
2021/05/08 08:53:24;;;;;;;4.43;3.50;;;;;;;11.45;72.88;100626.50;21029331;28;20260;-71
2021/05/08 09:03:24;;;;;;;3.87;3.37;;;;;;;11.18;71.33;100621.91;20976951;28;20233;-58
2021/05/08 09:13:25;;;;;;;3.87;3.23;;;;;;;10.95;71.85;100637.63;20967428;28;20853;-56
2021/05/08 09:23:40;;;;;;;4.60;3.00;;;;;;;11.02;69.71;100623.81;20976808;28;20461;-60
2021/05/08 09:33:50;;;;;;;2.60;2.40;;;;;;;11.08;66.15;100627.94;20957541;28;20225;-55
2021/05/08 09:43:51;;;;;;;3.83;3.40;;;;;;;10.38;72.60;100646.34;20970619;28;20223;-56
2021/05/08 09:53:53;;;;;;;3.03;2.83;;;;;;;10.35;75.49;100635.00;20950430;28;20217;-55
2021/05/08 10:03:53;;;;;;;3.53;2.50;;;;;;;10.53;72.84;100617.91;20973906;28;20227;-55
2021/05/08 10:13:54;;;;;;;2.57;1.90;;;;;;;11.19;69.80;100639.66;20955139;28;20243;-63
2021/05/08 10:23:54;;;;;;;3.17;2.20;;;;;;;11.27;69.39;100641.84;20970467;28;20238;-54
2021/05/08 10:33:55;;;;;;;4.93;2.40;;;;;;;11.12;66.94;100665.00;20959024;28;20297;-55
2021/05/08 10:43:55;;;;;;;2.73;2.07;;;;;;;12.14;65.43;100668.41;20961949;28;20260;-55
2021/05/08 10:53:57;;;;;;;3.60;2.10;;;;;;;12.75;61.51;100640.25;20966577;28;20223;-55
2021/05/08 11:04:18;;;;;;;2.37;2.10;;;;;;;12.01;61.14;100640.75;20953660;28;20231;-54
2021/05/08 11:14:53;;;;;;;3.57;2.00;;;;;;;12.42;59.44;100630.88;20613527;28;20225;-55
2021/05/08 11:24:54;;;;;;;3.47;2.37;;;;;;;12.42;61.37;100656.78;20608182;28;20221;-55
2021/05/08 11:34:56;;;;;;;3.83;2.20;;;;;;;12.11;60.34;100665.94;20629609;28;20539;-54
2021/05/08 11:44:58;;;;;;;4.37;2.17;;;;;;;12.56;61.29;100662.03;20684210;28;20478;-56
2021/05/08 11:54:59;;;;;;;2.53;2.00;;;;;;;12.20;62.89;100657.31;20969802;28;20219;-54
2021/05/08 12:04:59;;;;;;;4.73;1.87;;;;;;;12.98;60.58;100628.81;20962003;28;20221;-76
2021/05/08 12:15:00;;;;;;;2.80;2.60;;;;;;;13.19;57.99;100646.09;20972671;28;20224;-72
2021/05/08 12:25:03;;;;;;;6.10;4.40;;;;;;;13.08;56.47;100654.00;20956624;28;20233;-59
2021/05/08 12:35:11;;;;;;;2.93;2.27;;;;;;;12.92;55.94;100650.69;20961950;28;20224;-56
2021/05/08 12:45:13;;;;;;;3.47;2.40;;;;;;;13.14;57.54;100655.41;20978569;28;20234;-60
2021/05/08 12:55:24;;;;;;;3.40;2.00;;;;;;;13.27;54.96;100641.06;20954146;28;20226;-60
2021/05/08 13:05:26;;;;;;;2.10;1.80;;;;;;;13.07;55.02;100622.81;20977739;28;20232;-71
2021/05/08 13:15:35;;;;;;;3.40;1.90;;;;;;;13.45;55.34;100640.72;20957638;28;20218;-67
2021/05/08 13:25:35;;;;;;;3.63;1.67;;;;;;;13.37;56.63;100657.34;20976097;28;20218;-62
2021/05/08 13:35:37;;;;;;;2.87;2.10;;;;;;;13.34;54.68;100618.22;20959231;28;20225;-56
2021/05/08 13:45:37;;;;;;;7.57;2.30;;;;;;;13.01;55.53;100650.03;20970096;28;20230;-67
2021/05/08 13:55:37;;;;;;;3.37;2.03;;;;;;;13.50;53.10;100652.00;20964692;28;20220;-60
2021/05/08 14:05:38;;;;;;;3.77;2.00;;;;;;;13.37;53.18;100640.41;21057641;28;20225;-65
2021/05/08 14:15:38;;;;;;;2.30;1.67;;;;;;;13.16;54.27;100654.34;21057364;28;20385;-59
2021/05/08 14:25:39;;;;;;;3.80;2.00;;;;;;;12.72;53.04;100661.88;21073199;28;20269;-59
2021/05/08 14:35:39;;;;;;;2.00;1.60;;;;;;;12.55;52.93;100669.25;21049722;28;20588;-68
2021/05/08 14:45:40;;;;;;;1.80;1.70;;;;;;;12.30;54.20;100663.78;21033694;28;20227;-69
2021/05/08 14:55:40;;;;;;;3.17;2.03;;;;;;;12.38;53.09;100664.13;21054455;28;20291;-65
2021/05/08 15:05:41;;;;;;;3.40;1.70;;;;;;;12.02;52.27;100672.75;20976272;28;20729;-58
2021/05/08 15:15:41;;;;;;;2.27;1.67;;;;;;;12.18;55.77;100681.50;20966601;28;20465;-58
2021/05/08 15:25:42;;;;;;;1.97;1.70;;;;;;;12.73;53.81;100676.97;20956226;28;20215;-63
2021/05/08 15:35:42;;;;;;;5.20;2.70;;;;;;;12.42;53.69;100689.75;20958191;28;20250;-56
2021/05/08 15:45:42;;;;;;;4.87;2.83;;;;;;;12.47;54.68;100698.31;20963527;28;20859;-61
2021/05/08 15:55:49;;;;;;;2.20;1.83;;;;;;;12.44;54.15;100695.81;21065058;28;20697;-64
2021/05/08 16:05:53;;;;;;;3.27;1.73;;;;;;;12.20;53.80;100703.66;21041763;28;20679;-57
2021/05/08 16:15:53;;;;;;;4.87;3.43;;;;;;;11.97;56.22;100698.06;21113583;28;20674;-57
2021/05/08 16:25:54;;;;;;;3.40;2.00;;;;;;;12.13;55.76;100704.16;21066980;28;20261;-57
2021/05/08 16:35:54;;;;;;;2.27;1.90;;;;;;;12.27;55.03;100720.19;21077140;28;20461;-61
2021/05/08 16:45:55;;;;;;;5.10;4.07;;;;;;;12.04;55.57;100684.22;21146513;27;20742;-57
2021/05/08 16:55:56;;;;;;;9.87;6.77;;;;;;;12.32;54.33;100720.72;21134858;27;20670;-59
2021/05/08 17:05:57;;;;;;;9.03;7.87;;;;;;;13.41;52.92;100727.69;21139494;27;20218;-57
2021/05/08 17:15:59;;;;;;;14.17;8.13;;;;;;;13.48;50.61;100729.00;21140136;27;20213;-64
2021/05/08 17:25:59;;;;;;;11.97;6.20;;;;;;;13.50;50.31;100735.09;21098665;27;20837;-65
2021/05/08 17:36:00;;;;;;;19.17;14.33;;;;;;;13.14;51.14;100744.72;21118929;27;20308;-65
2021/05/08 17:46:00;;;;;;;7.10;5.00;;;;;;;12.41;53.69;100754.94;21121878;28;20497;-62
2021/05/08 17:56:01;;;;;;;29.83;20.73;;;;;;;11.76;54.74;100768.00;21142808;28;20226;-59
2021/05/08 18:06:02;;;;;;;19.63;12.60;;;;;;;11.10;57.72;100771.13;21121982;28;20621;-58
2021/05/08 18:16:03;;;;;;;22.10;12.57;;;;;;;10.32;60.54;100769.41;21141145;28;20231;-58
2021/05/08 18:26:04;;;;;;;11.23;7.40;;;;;;;9.56;63.37;100781.53;21126065;28;20225;-58
2021/05/08 18:36:04;;;;;;;15.77;11.27;;;;;;;9.07;65.90;100812.47;21132658;28;20633;-58
2021/05/08 18:46:05;;;;;;;9.57;6.70;;;;;;;8.69;67.87;100819.72;21132137;28;20226;-58
2021/05/08 18:56:05;;;;;;;9.77;6.07;;;;;;;8.37;69.62;100828.34;21106043;28;20246;-59
2021/05/08 19:06:06;;;;;;;7.70;4.70;;;;;;;8.03;72.02;100829.91;21088416;28;20327;-56
2021/05/08 19:16:07;;;;;;;6.90;4.27;;;;;;;7.80;74.88;100843.34;21031830;28;20456;-62
2021/05/08 19:26:07;;;;;;;14.25;8.07;;;;;;;7.50;75.60;100841.09;21033727;28;20301;-58
2021/05/08 19:36:08;;;;;;;10.93;6.82;;;;;;;7.43;75.98;100844.97;21019823;28;20221;-58
2021/05/08 19:56:05;;;;;;;9.67;6.33;;;;;;;6.69;80.53;100872.78;20875197;27;20633;-57
2021/05/08 20:06:06;;;;;;;8.47;5.70;;;;;;;6.45;85.50;100874.63;20868637;28;20295;-57
2021/05/08 20:16:06;;;;;;;8.73;5.90;;;;;;;6.34;87.14;100865.34;20864900;28;20223;-58
2021/05/08 20:26:08;;;;;;;6.05;4.65;;;;;;;6.17;87.03;100873.91;20809922;28;20232;-55
2021/05/08 20:36:08;;;;;;;5.30;4.13;;;;;;;5.88;88.02;100871.47;20787051;28;20721;-56
2021/05/08 20:46:09;;;;;;;5.20;3.43;;;;;;;5.48;90.41;100882.56;20816747;28;20227;-56
2021/05/08 20:56:09;;;;;;;3.80;3.40;;;;;;;5.26;93.27;100878.03;20869873;28;20215;-57
2021/05/08 21:06:10;;;;;;;6.00;3.90;;;;;;;5.12;94.54;100882.03;20800660;28;20222;-59
2021/05/08 21:16:10;;;;;;;6.20;5.60;;;;;;;5.06;96.48;100880.47;20813572;28;20252;-56
2021/05/08 21:26:11;;;;;;;8.90;5.80;;;;;;;5.12;97.76;100874.97;20797401;28;20262;-56
2021/05/08 21:36:11;;;;;;;5.67;4.67;;;;;;;5.17;97.82;100880.13;20807339;28;20226;-56
2021/05/08 21:46:12;;;;;;;10.77;5.47;;;;;;;5.02;98.46;100868.25;20801740;28;20464;-57
2021/05/08 21:56:13;;;;;;;7.47;6.00;;;;;;;5.02;99.22;100881.47;20798844;28;20557;-56
2021/05/08 22:06:13;;;;;;;8.10;6.57;;;;;;;4.95;99.47;100882.59;20808700;28;20211;-56
2021/05/08 22:16:14;;;;;;;11.07;7.97;;;;;;;4.78;99.65;100898.13;20793873;28;20750;-56
2021/05/08 22:26:14;;;;;;;13.40;8.47;;;;;;;4.55;100.00;100914.69;20808036;28;20686;-70
2021/05/08 22:36:15;;;;;;;8.07;6.10;;;;;;;4.32;100.00;100921.53;20786749;28;20531;-61
2021/05/08 22:46:15;;;;;;;11.40;7.40;;;;;;;4.26;100.00;100920.81;20806431;28;20358;-74
2021/05/08 23:06:11;;;;;;;11.10;7.40;;;;;;;4.01;100.00;100911.84;20877361;28;20547;-59
2021/05/08 23:26:07;;;;;;;14.13;9.27;;;;;;;3.87;100.00;100891.97;20945809;27;20336;-58
2021/05/08 23:36:07;;;;;;;14.93;9.70;;;;;;;3.86;100.00;100892.91;20954412;28;20262;-61
2021/05/08 23:46:08;;;;;;;9.13;7.50;;;;;;;3.86;100.00;100903.47;20936472;28;20250;-57
2021/05/08 23:56:08;;;;;;;8.50;6.90;;;;;;;3.87;100.00;100905.19;20936885;28;20215;-67
